createdAt,value
2024-05-09T00:00:43.982Z,8.68
2024-05-09T00:03:12.354Z,8.68
2024-05-09T00:05:44.530Z,8.43
2024-05-09T00:08:12.634Z,7.05
2024-05-09T00:10:41.124Z,7.63
2024-05-09T00:13:10.659Z,6.78
2024-05-09T00:15:39.081Z,6.82
2024-05-09T00:18:07.771Z,6.50
2024-05-09T00:20:39.736Z,6.53
2024-05-09T00:23:11.621Z,7.47
2024-05-09T00:25:40.284Z,7.13
2024-05-09T00:28:07.739Z,7.03
2024-05-09T00:30:36.879Z,7.97
2024-05-09T00:33:07.265Z,7.25
2024-05-09T00:35:36.285Z,6.13
2024-05-09T00:38:04.744Z,6.22
2024-05-09T00:40:42.294Z,6.15
2024-05-09T00:43:12.600Z,5.47
2024-05-09T00:45:41.355Z,5.00
2024-05-09T00:48:11.279Z,6.07
2024-05-09T00:50:42.401Z,5.93
2024-05-09T00:53:15.749Z,6.15
2024-05-09T00:55:44.440Z,5.68
2024-05-09T00:58:15.412Z,4.82
2024-05-09T01:00:43.541Z,7.35
2024-05-09T01:03:13.065Z,7.60
2024-05-09T01:05:43.117Z,9.63
2024-05-09T01:08:11.873Z,7.15
2024-05-09T01:10:42.779Z,10.18
2024-05-09T01:13:12.713Z,8.32
2024-05-09T01:15:40.339Z,7.30
2024-05-09T01:18:11.014Z,6.88
2024-05-09T01:20:42.947Z,6.38
2024-05-09T01:23:14.790Z,6.75
2024-05-09T01:25:44.976Z,6.82
2024-05-09T01:28:12.901Z,6.88
2024-05-09T01:30:40.592Z,6.55
2024-05-09T01:33:10.492Z,7.15
2024-05-09T01:35:41.873Z,6.20
2024-05-09T01:38:13.605Z,6.10
2024-05-09T01:40:41.728Z,6.18
2024-05-09T01:43:10.722Z,5.68
2024-05-09T01:45:39.958Z,6.15
2024-05-09T01:48:08.838Z,6.13
2024-05-09T01:50:40.499Z,5.93
2024-05-09T01:53:15.210Z,6.15
2024-05-09T01:55:44.301Z,5.88
2024-05-09T01:58:11.987Z,6.93
2024-05-09T02:00:42.364Z,5.53
2024-05-09T02:03:15.594Z,6.05
2024-05-09T02:05:47.156Z,6.40
2024-05-09T02:08:18.518Z,7.22
2024-05-09T02:10:48.196Z,6.38
2024-05-09T02:13:16.887Z,6.25
2024-05-09T02:15:44.809Z,6.78
2024-05-09T02:18:12.988Z,5.65
2024-05-09T02:20:42.174Z,6.53
2024-05-09T02:23:10.579Z,6.47
2024-05-09T02:25:38.191Z,6.70
2024-05-09T02:28:06.149Z,6.90
2024-05-09T02:33:04.334Z,5.63
2024-05-09T02:35:31.884Z,5.63
2024-05-09T02:37:59.577Z,5.20
2024-05-09T02:40:35.596Z,5.43
2024-05-09T02:43:10.695Z,4.38
2024-05-09T02:45:42.106Z,4.45
2024-05-09T02:48:13.980Z,4.18
2024-05-09T02:50:44.376Z,4.55
2024-05-09T02:53:12.576Z,3.92
2024-05-09T02:55:41.148Z,3.47
2024-05-09T02:58:08.907Z,4.32
2024-05-09T03:00:40.238Z,3.92
2024-05-09T03:03:14.829Z,4.57
2024-05-09T03:05:44.520Z,3.60
2024-05-09T03:08:12.610Z,4.25
2024-05-09T03:10:40.299Z,3.70
2024-05-09T03:13:15.011Z,4.40
2024-05-09T03:15:44.837Z,3.85
2024-05-09T03:18:12.951Z,3.85
2024-05-09T03:20:40.854Z,4.15
2024-05-09T03:23:09.648Z,3.90
2024-05-09T03:25:38.553Z,4.97
2024-05-09T03:28:06.591Z,4.13
2024-05-09T03:30:40.611Z,4.53
2024-05-09T03:33:20.776Z,4.07
2024-05-09T03:35:49.522Z,4.38
2024-05-09T03:38:17.490Z,4.45
2024-05-09T03:40:49.830Z,4.35
2024-05-09T03:43:18.891Z,4.78
2024-05-09T03:45:48.523Z,4.57
2024-05-09T03:48:16.560Z,4.53
2024-05-09T03:50:44.247Z,4.50
2024-05-09T03:53:13.743Z,4.45
2024-05-09T03:55:41.746Z,4.80
2024-05-09T03:58:09.297Z,5.28
2024-05-09T04:00:39.347Z,4.60
2024-05-09T04:03:10.930Z,4.68
2024-05-09T04:05:42.460Z,4.35
2024-05-09T04:08:14.160Z,4.50
2024-05-09T04:10:42.151Z,4.40
2024-05-09T04:13:10.658Z,3.50
2024-05-09T04:15:38.240Z,3.97
2024-05-09T04:18:05.963Z,3.58
2024-05-09T04:20:38.688Z,4.57
2024-05-09T04:23:13.393Z,3.42
2024-05-09T04:25:43.729Z,4.05
2024-05-09T04:28:11.312Z,3.70
2024-05-09T04:30:41.040Z,3.88
2024-05-09T04:33:12.258Z,3.38
2024-05-09T04:35:42.861Z,3.97
2024-05-09T04:38:10.923Z,3.33
2024-05-09T04:40:38.527Z,4.95
2024-05-09T04:43:06.880Z,3.38
2024-05-09T04:45:35.294Z,3.63
2024-05-09T04:48:03.734Z,3.35
2024-05-09T04:50:36.898Z,3.50
2024-05-09T04:53:10.982Z,3.65
2024-05-09T04:55:39.950Z,3.38
2024-05-09T04:58:11.766Z,3.13
2024-05-09T05:00:40.768Z,3.13
2024-05-09T05:03:13.474Z,3.90
2024-05-09T05:05:44.085Z,3.85
2024-05-09T05:08:17.495Z,3.20
2024-05-09T05:10:46.763Z,4.68
2024-05-09T05:13:23.089Z,3.95
2024-05-09T05:15:55.812Z,3.67
2024-05-09T05:18:24.599Z,3.55
2024-05-09T05:20:52.432Z,4.00
2024-05-09T05:23:21.180Z,3.55
2024-05-09T05:25:50.255Z,4.10
2024-05-09T05:28:17.961Z,3.67
2024-05-09T05:30:46.043Z,3.42
2024-05-09T05:33:15.700Z,3.90
2024-05-09T05:35:43.562Z,3.25
2024-05-09T05:38:11.523Z,4.13
2024-05-09T05:40:40.515Z,4.00
2024-05-09T05:43:10.554Z,3.78
2024-05-09T05:45:39.930Z,4.45
2024-05-09T05:48:08.012Z,3.88
2024-05-09T05:50:37.885Z,3.85
2024-05-09T05:53:08.085Z,4.30
2024-05-09T05:55:40.940Z,3.75
2024-05-09T05:58:12.223Z,4.07
2024-05-09T06:00:41.698Z,5.45
2024-05-09T06:03:11.702Z,5.28
2024-05-09T06:05:46.931Z,4.80
2024-05-09T06:08:14.746Z,4.75
2024-05-09T06:10:42.764Z,5.05
2024-05-09T06:13:11.775Z,4.82
2024-05-09T06:15:40.934Z,4.60
2024-05-09T06:18:10.754Z,3.83
2024-05-09T06:20:43.026Z,4.80
2024-05-09T06:23:11.704Z,4.85
2024-05-09T06:25:39.395Z,6.95
2024-05-09T06:28:07.129Z,4.97
2024-05-09T06:30:42.235Z,5.28
2024-05-09T06:33:13.411Z,5.88
2024-05-09T06:35:43.597Z,5.53
2024-05-09T06:38:11.808Z,5.65
2024-05-09T06:40:42.612Z,5.70
2024-05-09T06:43:13.007Z,5.70
2024-05-09T06:45:40.795Z,5.57
2024-05-09T06:48:09.951Z,5.85
2024-05-09T06:50:39.491Z,6.05
2024-05-09T06:53:08.313Z,5.88
2024-05-09T06:55:37.255Z,5.65
2024-05-09T06:58:06.939Z,4.40
2024-05-09T07:00:39.265Z,6.55
2024-05-09T07:03:15.375Z,5.45
2024-05-09T07:05:46.680Z,4.68
2024-05-09T07:08:15.184Z,3.95
2024-05-09T07:10:42.862Z,5.53
2024-05-09T07:13:11.955Z,5.18
2024-05-09T07:15:40.112Z,6.60
2024-05-09T07:18:17.587Z,6.68
2024-05-09T07:20:47.181Z,5.80
2024-05-09T07:23:15.950Z,6.45
2024-05-09T07:25:43.990Z,4.40
2024-05-09T07:28:21.395Z,5.03
2024-05-09T07:30:48.912Z,6.10
2024-05-09T07:33:22.300Z,5.88
2024-05-09T07:35:51.530Z,4.10
2024-05-09T07:38:19.343Z,6.68
2024-05-09T07:40:47.126Z,6.45
2024-05-09T07:43:16.015Z,5.47
2024-05-09T07:45:52.262Z,6.50
2024-05-09T07:52:38.119Z,5.82
2024-05-09T07:53:49.310Z,6.38
2024-05-09T07:56:22.200Z,5.70
2024-05-09T07:58:52.698Z,5.50
2024-05-09T08:01:21.165Z,7.45
2024-05-09T08:03:50.268Z,5.68
2024-05-09T08:06:18.011Z,4.55
2024-05-09T08:08:47.289Z,5.00
2024-05-09T08:11:14.990Z,3.65
2024-05-09T08:13:42.467Z,5.20
2024-05-09T08:16:09.990Z,4.68
2024-05-09T08:18:37.777Z,5.80
2024-05-09T08:21:05.741Z,4.78
2024-05-09T08:23:33.444Z,3.60
2024-05-09T08:26:01.009Z,4.15
2024-05-09T08:28:28.673Z,5.32
2024-05-09T08:30:57.320Z,4.05
2024-05-09T08:33:25.073Z,4.45
2024-05-09T08:35:54.438Z,5.15
2024-05-09T08:38:21.893Z,4.18
2024-05-09T08:40:49.834Z,4.65
2024-05-09T08:43:20.312Z,5.30
2024-05-09T08:45:50.267Z,4.63
2024-05-09T08:48:19.930Z,4.95
2024-05-09T08:50:51.992Z,4.32
2024-05-09T08:53:20.293Z,4.35
2024-05-09T08:55:48.928Z,4.72
2024-05-09T08:58:20.535Z,3.70
2024-05-09T09:00:49.470Z,5.13
2024-05-09T09:03:25.167Z,3.83
2024-05-09T09:06:12.719Z,6.30
2024-05-09T09:08:40.502Z,5.88
2024-05-09T09:11:08.003Z,5.82
2024-05-09T09:13:35.417Z,4.00
2024-05-09T09:16:03.971Z,3.33
2024-05-09T09:18:33.237Z,3.55
2024-05-09T09:21:02.524Z,6.32
2024-05-09T09:23:30.666Z,4.18
2024-05-09T09:26:01.608Z,3.10
2024-05-09T09:28:29.955Z,3.20
2024-05-09T09:31:04.491Z,2.83
2024-05-09T09:33:32.796Z,3.30
2024-05-09T09:36:02.934Z,2.88
2024-05-09T09:38:32.615Z,6.80
2024-05-09T09:41:04.646Z,3.67
2024-05-09T09:43:33.117Z,3.35
2024-05-09T09:46:02.330Z,2.95
2024-05-09T09:48:31.609Z,3.15
2024-05-09T09:51:00.427Z,5.85
2024-05-09T09:53:29.437Z,3.30
2024-05-09T09:55:57.868Z,2.55
2024-05-09T09:58:25.733Z,2.10
2024-05-09T10:00:53.390Z,5.88
2024-05-09T10:03:20.823Z,4.03
2024-05-09T10:05:49.556Z,4.20
2024-05-09T10:08:18.342Z,3.13
2024-05-09T10:10:50.532Z,2.65
2024-05-09T10:13:20.106Z,2.65
2024-05-09T10:15:52.512Z,2.17
2024-05-09T10:18:27.253Z,3.42
2024-05-09T10:20:58.020Z,3.80
2024-05-09T10:23:30.829Z,3.40
2024-05-09T10:26:03.689Z,2.78
2024-05-09T10:28:33.217Z,2.22
2024-05-09T10:31:15.698Z,3.70
2024-05-09T10:33:52.310Z,2.50
2024-05-09T10:36:22.655Z,1.63
2024-05-09T10:38:51.030Z,1.33
2024-05-09T10:41:19.367Z,1.73
2024-05-09T10:43:47.629Z,3.55
2024-05-09T10:46:15.225Z,3.03
2024-05-09T10:48:44.266Z,2.35
2024-05-09T10:51:13.343Z,1.77
2024-05-09T10:53:45.328Z,1.50
2024-05-09T10:56:16.444Z,2.22
2024-05-09T10:58:44.769Z,2.95
2024-05-09T11:01:13.730Z,3.25
2024-05-09T11:03:41.878Z,2.45
2024-05-09T11:06:11.462Z,3.80
2024-05-09T11:08:39.502Z,4.40
2024-05-09T11:11:08.783Z,4.88
2024-05-09T11:13:38.601Z,3.97
2024-05-09T11:16:21.033Z,2.13
2024-05-09T11:18:59.053Z,2.70
2024-05-09T11:21:27.081Z,3.58
2024-05-09T11:23:55.230Z,2.67
2024-05-09T11:26:25.419Z,2.10
2024-05-09T11:28:52.938Z,2.55
2024-05-09T11:31:20.468Z,4.25
2024-05-09T11:33:48.184Z,2.75
2024-05-09T11:36:15.990Z,2.30
2024-05-09T11:38:43.655Z,2.20
2024-05-09T11:41:18.488Z,1.90
2024-05-09T11:43:46.110Z,1.20
2024-05-09T11:46:13.841Z,1.30
2024-05-09T11:48:41.670Z,1.00
2024-05-09T11:51:09.241Z,1.00
2024-05-09T11:53:36.673Z,1.20
2024-05-09T11:56:04.411Z,1.55
2024-05-09T11:58:37.032Z,1.48
2024-05-09T12:01:04.806Z,1.70
2024-05-09T12:03:32.645Z,1.08
2024-05-09T12:06:00.626Z,0.90
2024-05-09T12:08:28.313Z,1.08
2024-05-09T12:10:56.218Z,1.00
2024-05-09T12:13:24.208Z,1.17
2024-05-09T12:15:51.757Z,1.10
2024-05-09T12:18:19.219Z,1.08
2024-05-09T12:20:46.738Z,1.90
2024-05-09T12:23:14.658Z,1.42
2024-05-09T12:25:42.213Z,1.45
2024-05-09T12:28:09.792Z,1.63
2024-05-09T12:30:40.291Z,0.98
2024-05-09T12:33:13.210Z,0.80
2024-05-09T12:35:44.306Z,0.90
2024-05-09T12:38:15.056Z,0.90
2024-05-09T12:40:43.226Z,1.02
2024-05-09T12:43:11.649Z,1.00
2024-05-09T12:45:40.399Z,1.48
2024-05-09T12:48:12.320Z,1.48
2024-05-09T12:50:41.774Z,1.38
2024-05-09T12:53:09.890Z,1.08
2024-05-09T12:55:44.936Z,1.02
2024-05-09T12:58:22.769Z,1.75
2024-05-09T13:00:52.078Z,1.40
2024-05-09T13:03:20.276Z,1.00
2024-05-09T13:05:48.567Z,1.10
2024-05-09T13:08:16.277Z,1.00
2024-05-09T13:10:43.934Z,1.30
2024-05-09T13:13:11.727Z,1.10
2024-05-09T13:15:39.417Z,0.80
2024-05-09T13:18:07.658Z,1.08
2024-05-09T13:20:36.917Z,0.73
2024-05-09T13:23:07.260Z,0.57
2024-05-09T13:25:36.443Z,0.80
2024-05-09T13:28:04.856Z,1.33
2024-05-09T13:30:40.081Z,1.23
2024-05-09T13:33:11.578Z,1.00
2024-05-09T13:35:49.484Z,1.10
2024-05-09T13:38:20.033Z,1.23
2024-05-09T13:40:48.441Z,0.85
2024-05-09T13:43:16.316Z,0.88
2024-05-09T13:45:44.004Z,1.00
2024-05-09T13:48:11.657Z,0.80
2024-05-09T13:50:39.530Z,1.80
2024-05-09T13:53:08.486Z,1.85
2024-05-09T13:55:40.176Z,1.15
2024-05-09T13:58:09.031Z,1.00
2024-05-09T14:00:45.189Z,1.73
2024-05-09T14:03:18.199Z,1.83
2024-05-09T14:05:47.847Z,2.38
2024-05-09T14:08:17.937Z,1.80
2024-05-09T14:10:49.390Z,1.65
2024-05-09T14:13:17.289Z,1.70
2024-05-09T14:15:46.313Z,1.75
2024-05-09T14:18:14.567Z,2.40
2024-05-09T14:20:43.111Z,1.20
2024-05-09T14:23:10.855Z,1.52
2024-05-09T14:25:42.560Z,2.10
2024-05-09T14:28:12.928Z,1.25
2024-05-09T14:30:41.607Z,1.73
2024-05-09T14:33:09.738Z,1.35
2024-05-09T14:35:38.851Z,1.30
2024-05-09T14:38:07.497Z,1.38
2024-05-09T14:40:41.692Z,1.58
2024-05-09T14:43:15.899Z,1.60
2024-05-09T14:45:44.685Z,1.35
2024-05-09T14:48:15.976Z,1.15
2024-05-09T14:50:43.762Z,1.77
2024-05-09T14:53:12.815Z,1.55
2024-05-09T14:55:42.905Z,1.33
2024-05-09T14:58:13.135Z,1.20
2024-05-09T15:00:46.430Z,1.13
2024-05-09T15:03:18.912Z,0.90
2024-05-09T15:05:47.884Z,1.02
2024-05-09T15:08:17.953Z,0.90
2024-05-09T15:10:46.113Z,1.00
2024-05-09T15:13:16.416Z,1.17
2024-05-09T15:15:45.076Z,1.10
2024-05-09T15:18:13.932Z,1.40
2024-05-09T15:20:43.471Z,1.00
2024-05-09T15:23:11.096Z,0.90
2024-05-09T15:25:38.583Z,1.13
2024-05-09T15:28:08.159Z,1.20
2024-05-09T15:30:36.715Z,1.60
2024-05-09T15:33:05.351Z,0.70
2024-05-09T15:35:34.353Z,0.75
2024-05-09T15:38:05.542Z,0.80
2024-05-09T15:40:39.557Z,1.05
2024-05-09T15:43:10.534Z,0.80
2024-05-09T15:45:40.098Z,0.80
2024-05-09T15:48:09.750Z,0.80
2024-05-09T15:50:40.966Z,1.08
2024-05-09T15:53:12.302Z,0.88
2024-05-09T15:55:41.737Z,0.80
2024-05-09T15:58:13.360Z,0.80
2024-05-09T16:00:44.210Z,0.98
2024-05-09T16:03:14.537Z,0.85
2024-05-09T16:05:47.009Z,1.08
2024-05-09T16:08:15.999Z,0.90
2024-05-09T16:10:46.156Z,0.70
2024-05-09T16:13:15.184Z,0.90
2024-05-09T16:15:44.323Z,0.90
2024-05-09T16:18:12.914Z,0.75
2024-05-09T16:20:42.389Z,0.73
2024-05-09T16:23:11.600Z,0.70
2024-05-09T16:25:39.933Z,0.90
2024-05-09T16:28:10.360Z,0.70
2024-05-09T16:30:40.066Z,0.70
2024-05-09T16:33:08.666Z,0.70
2024-05-09T16:35:37.682Z,0.80
2024-05-09T16:38:06.321Z,0.80
2024-05-09T16:40:38.840Z,1.02
2024-05-09T16:43:13.202Z,0.57
2024-05-09T16:45:44.241Z,0.80
2024-05-09T16:48:13.439Z,1.05
2024-05-09T16:50:41.042Z,0.70
2024-05-09T16:53:08.886Z,0.82
2024-05-09T16:55:36.815Z,0.70
2024-05-09T16:58:05.249Z,0.77
2024-05-09T17:00:40.372Z,0.80
2024-05-09T17:03:13.269Z,0.70
2024-05-09T17:05:42.747Z,0.60
2024-05-09T17:08:10.808Z,0.70
2024-05-09T17:10:38.500Z,0.63
2024-05-09T17:13:08.096Z,1.13
2024-05-09T17:15:39.159Z,1.13
2024-05-09T17:18:07.853Z,0.70
2024-05-09T17:20:37.599Z,0.82
2024-05-09T17:23:14.987Z,1.05
2024-05-09T17:25:43.446Z,0.60
2024-05-09T17:28:11.804Z,0.80
2024-05-09T17:30:42.171Z,0.88
2024-05-09T17:33:11.434Z,0.80
2024-05-09T17:35:40.194Z,0.60
2024-05-09T17:38:08.077Z,0.70
2024-05-09T17:40:37.624Z,0.70
2024-05-09T17:43:09.000Z,0.50
2024-05-09T17:45:41.268Z,0.52
2024-05-09T17:48:11.038Z,0.60
2024-05-09T17:50:40.081Z,0.50
2024-05-09T17:53:08.993Z,0.60
2024-05-09T17:55:36.982Z,0.75
2024-05-09T17:58:07.091Z,0.77
2024-05-09T18:00:39.500Z,0.80
2024-05-09T18:03:13.770Z,0.60
2024-05-09T18:05:43.508Z,0.60
2024-05-09T18:08:12.391Z,0.80
2024-05-09T18:10:41.531Z,0.57
2024-05-09T18:13:10.454Z,0.60
2024-05-09T18:15:38.886Z,0.60
2024-05-09T18:18:07.420Z,0.70
2024-05-09T18:20:42.347Z,0.80
2024-05-09T18:23:17.927Z,0.70
2024-05-09T18:25:47.137Z,0.60
2024-05-09T18:28:15.912Z,0.60
2024-05-09T18:30:43.725Z,0.80
2024-05-09T18:33:11.991Z,0.70
2024-05-09T18:35:42.896Z,0.88
2024-05-09T18:38:10.818Z,1.20
2024-05-09T18:40:39.770Z,1.45
2024-05-09T18:43:09.368Z,2.10
2024-05-09T18:45:40.496Z,3.40
2024-05-09T18:48:10.118Z,3.20
2024-05-09T18:50:40.743Z,3.70
2024-05-09T18:53:13.263Z,3.28
2024-05-09T18:55:45.067Z,3.50
2024-05-09T18:58:12.924Z,4.50
2024-05-09T19:00:43.853Z,4.65
2024-05-09T19:03:14.266Z,4.03
2024-05-09T19:05:45.081Z,4.10
2024-05-09T19:08:15.071Z,3.10
2024-05-09T19:10:43.118Z,3.45
2024-05-09T19:13:13.026Z,3.92
2024-05-09T19:15:43.278Z,3.58
2024-05-09T19:18:12.876Z,4.05
2024-05-09T19:20:40.934Z,3.63
2024-05-09T19:23:08.425Z,3.17
2024-05-09T19:25:36.347Z,3.78
2024-05-09T19:28:05.609Z,3.58
2024-05-09T19:30:39.089Z,5.30
2024-05-09T19:33:11.120Z,3.50
2024-05-09T19:35:39.799Z,4.00
2024-05-09T19:38:07.422Z,4.35
2024-05-09T19:40:35.634Z,3.35
2024-05-09T19:43:05.179Z,4.18
2024-05-09T19:45:35.145Z,3.60
2024-05-09T19:48:04.239Z,5.57
2024-05-09T19:50:39.947Z,5.43
2024-05-09T19:53:11.776Z,5.20
2024-05-09T19:55:40.048Z,4.50
2024-05-09T19:58:08.605Z,4.53
2024-05-09T20:00:39.946Z,5.43
2024-05-09T20:03:11.311Z,4.35
2024-05-09T20:05:39.653Z,4.15
2024-05-09T20:08:07.721Z,4.75
2024-05-09T20:10:36.420Z,4.15
2024-05-09T20:13:06.609Z,3.90
2024-05-09T20:15:37.017Z,5.10
2024-05-09T20:18:05.540Z,5.05
2024-05-09T20:20:39.813Z,4.30
2024-05-09T20:23:11.095Z,4.03
2024-05-09T20:25:38.665Z,3.85
2024-05-09T20:28:06.753Z,4.90
2024-05-09T20:30:35.886Z,4.22
2024-05-09T20:33:05.738Z,4.68
2024-05-09T20:35:34.996Z,3.53
2024-05-09T20:38:03.481Z,3.97
2024-05-09T20:40:35.655Z,3.60
2024-05-09T20:43:07.254Z,7.25
2024-05-09T20:45:35.299Z,6.78
2024-05-09T20:48:03.027Z,5.18
2024-05-09T20:50:38.428Z,5.70
2024-05-09T20:53:13.436Z,5.60
2024-05-09T20:55:42.877Z,4.90
2024-05-09T20:58:10.847Z,4.80
2024-05-09T21:00:42.235Z,4.10
2024-05-09T21:03:14.500Z,3.80
2024-05-09T21:05:43.628Z,4.20
2024-05-09T21:08:11.604Z,4.13
2024-05-09T21:10:39.232Z,3.65
2024-05-09T21:13:07.408Z,4.32
2024-05-09T21:15:36.028Z,4.13
2024-05-09T21:18:04.583Z,4.18
2024-05-09T21:20:34.862Z,4.50
2024-05-09T21:23:03.136Z,5.10
2024-05-09T21:25:31.427Z,4.68
2024-05-09T21:27:59.081Z,4.47
2024-05-09T21:30:33.100Z,5.10
2024-05-09T21:33:10.109Z,4.40
2024-05-09T21:35:38.958Z,4.63
2024-05-09T21:38:07.364Z,4.97
2024-05-09T21:40:36.551Z,5.65
2024-05-09T21:43:06.233Z,5.57
2024-05-09T21:45:34.608Z,5.15
2024-05-09T21:48:06.676Z,6.05
2024-05-09T21:50:40.241Z,5.43
2024-05-09T21:53:11.150Z,5.00
2024-05-09T21:55:38.772Z,4.75
2024-05-09T21:58:06.388Z,5.50
2024-05-09T22:00:38.174Z,4.82
2024-05-09T22:03:11.034Z,5.47
2024-05-09T22:05:42.485Z,6.47
2024-05-09T22:08:11.010Z,5.50
2024-05-09T22:10:38.777Z,4.97
2024-05-09T22:13:07.263Z,6.20
2024-05-09T22:15:37.294Z,5.47
2024-05-09T22:18:06.526Z,4.88
2024-05-09T22:20:38.266Z,5.15
2024-05-09T22:23:08.574Z,4.80
2024-05-09T22:25:37.266Z,4.57
2024-05-09T22:28:05.316Z,4.43
2024-05-09T22:30:37.284Z,4.20
2024-05-09T22:33:09.681Z,5.15
2024-05-09T22:35:38.756Z,4.55
2024-05-09T22:38:06.644Z,4.63
2024-05-09T22:40:44.867Z,4.75
2024-05-09T22:43:24.015Z,4.68
2024-05-09T22:45:55.960Z,5.50
2024-05-09T22:48:25.039Z,4.68
2024-05-09T22:50:53.941Z,4.30
2024-05-09T22:53:25.747Z,4.30
2024-05-09T22:55:53.652Z,4.53
2024-05-09T22:58:21.636Z,4.60
2024-05-09T23:00:49.313Z,4.63
2024-05-09T23:03:18.807Z,4.40
2024-05-09T23:05:46.599Z,4.55
2024-05-09T23:08:14.200Z,4.85
2024-05-09T23:10:41.785Z,4.60
2024-05-09T23:13:09.391Z,4.43
2024-05-09T23:15:38.771Z,4.85
2024-05-09T23:18:07.357Z,4.68
2024-05-09T23:20:38.615Z,4.18
2024-05-09T23:23:09.198Z,4.30
2024-05-09T23:25:38.032Z,4.43
2024-05-09T23:28:06.146Z,4.30
2024-05-09T23:30:38.471Z,4.22
2024-05-09T23:33:12.873Z,4.18
2024-05-09T23:35:44.661Z,4.03
2024-05-09T23:38:12.699Z,3.90
2024-05-09T23:40:41.605Z,3.45
2024-05-09T23:43:11.881Z,3.67
2024-05-09T23:45:40.521Z,3.80
2024-05-09T23:48:08.511Z,4.10
2024-05-09T23:50:38.329Z,4.38
2024-05-09T23:53:08.599Z,3.40
2024-05-09T23:55:37.457Z,3.47
2024-05-09T23:58:05.522Z,4.15
